createdAt,value
2019-03-25T00:00:42.310Z,64.06
2019-03-25T00:03:12.020Z,64.26
2019-03-25T00:05:41.119Z,63.59
2019-03-25T00:08:11.128Z,63.57
2019-03-25T00:10:40.020Z,63.29
2019-03-25T00:13:09.935Z,63.74
2019-03-25T00:15:38.829Z,63.22
2019-03-25T00:18:08.334Z,63.62
2019-03-25T00:20:37.222Z,63.67
2019-03-25T00:23:06.114Z,63.64
2019-03-25T00:25:36.129Z,63.00
2019-03-25T00:28:05.021Z,63.23
2019-03-25T00:30:33.915Z,62.34
2019-03-25T00:33:02.804Z,62.70
2019-03-25T00:35:31.697Z,63.52
2019-03-25T00:38:00.917Z,63.84
2019-03-25T00:40:29.784Z,64.27
2019-03-25T00:42:58.677Z,63.47
2019-03-25T00:45:27.670Z,62.59
2019-03-25T00:47:56.564Z,63.79
2019-03-25T00:50:25.452Z,63.95
2019-03-25T00:52:54.343Z,64.00
2019-03-25T00:55:23.234Z,64.91
2019-03-25T00:57:52.126Z,65.45
2019-03-25T01:00:21.123Z,65.08
2019-03-25T01:02:50.013Z,65.11
2019-03-25T01:05:19.628Z,65.37
2019-03-25T01:07:49.145Z,64.09
2019-03-25T01:10:18.528Z,64.09
2019-03-25T01:12:47.818Z,64.51
2019-03-25T01:15:17.328Z,65.06
2019-03-25T01:17:46.255Z,65.29
2019-03-25T01:20:15.237Z,64.99
2019-03-25T01:22:44.112Z,64.81
2019-03-25T01:25:13.921Z,64.87
2019-03-25T01:27:42.815Z,64.94
2019-03-25T01:30:12.629Z,64.28
2019-03-25T01:32:41.519Z,65.03
2019-03-25T01:35:11.777Z,64.73
2019-03-25T01:37:40.633Z,64.80
2019-03-25T01:40:10.679Z,64.87
2019-03-25T01:42:39.746Z,65.07
2019-03-25T01:45:09.658Z,65.23
2019-03-25T01:47:38.551Z,65.33
2019-03-25T01:50:08.452Z,65.98
2019-03-25T01:52:37.383Z,66.97
2019-03-25T01:55:13.333Z,66.52
2019-03-25T01:57:37.292Z,66.18
2019-03-25T02:00:07.922Z,65.91
2019-03-25T02:02:36.818Z,65.75
2019-03-25T02:05:07.014Z,67.21
2019-03-25T02:07:35.824Z,67.53
2019-03-25T02:10:06.626Z,66.21
2019-03-25T02:12:35.553Z,67.04
2019-03-25T02:15:05.059Z,67.86
2019-03-25T02:17:33.953Z,67.34
2019-03-25T02:20:02.945Z,67.75
2019-03-25T02:22:31.873Z,67.37
2019-03-25T02:25:00.832Z,67.21
2019-03-25T02:27:29.720Z,67.28
2019-03-25T02:29:58.611Z,66.83
2019-03-25T02:32:27.606Z,66.17
2019-03-25T02:34:56.499Z,68.40
2019-03-25T02:37:25.391Z,67.80
2019-03-25T02:39:54.278Z,67.20
2019-03-25T02:42:23.188Z,67.48
2019-03-25T02:44:52.059Z,67.31
2019-03-25T02:47:21.050Z,67.49
2019-03-25T02:49:49.949Z,68.35
2019-03-25T02:52:18.838Z,67.51
2019-03-25T02:54:47.729Z,68.15
2019-03-25T02:57:16.615Z,68.37
2019-03-25T02:59:45.541Z,67.99
2019-03-25T03:02:14.400Z,67.85
2019-03-25T03:04:43.291Z,68.21
2019-03-25T03:07:12.183Z,68.61
2019-03-25T03:09:41.071Z,68.24
2019-03-25T03:12:10.786Z,68.29
2019-03-25T03:14:39.677Z,67.21
2019-03-25T03:17:09.569Z,66.56
2019-03-25T03:19:38.485Z,66.18
2019-03-25T03:22:07.663Z,67.15
2019-03-25T03:24:36.572Z,65.54
2019-03-25T03:27:05.573Z,65.79
2019-03-25T03:29:34.584Z,67.66
2019-03-25T03:32:03.400Z,67.11
2019-03-25T03:34:32.270Z,69.19
2019-03-25T03:37:01.238Z,69.28
2019-03-25T03:39:30.124Z,69.24
2019-03-25T03:41:59.016Z,68.78
2019-03-25T03:44:27.921Z,68.76
2019-03-25T03:46:56.802Z,68.39
2019-03-25T03:49:25.699Z,68.88
2019-03-25T03:51:56.109Z,69.55
2019-03-25T03:54:25.113Z,69.64
2019-03-25T03:56:55.713Z,69.19
2019-03-25T03:59:25.180Z,69.82
2019-03-25T04:01:54.143Z,71.13
2019-03-25T04:04:23.031Z,70.87
2019-03-25T04:06:51.920Z,70.41
2019-03-25T04:09:20.829Z,71.29
2019-03-25T04:11:49.809Z,71.56
2019-03-25T04:14:18.697Z,71.91
2019-03-25T04:16:47.594Z,71.34
2019-03-25T04:19:16.580Z,72.50
2019-03-25T04:21:45.472Z,69.77
2019-03-25T04:24:14.362Z,69.16
2019-03-25T04:26:43.256Z,71.50
2019-03-25T04:29:12.363Z,72.23
2019-03-25T04:31:41.244Z,71.58
2019-03-25T04:34:10.850Z,70.46
2019-03-25T04:36:39.843Z,71.24
2019-03-25T04:39:09.875Z,71.72
2019-03-25T04:41:38.753Z,71.14
2019-03-25T04:44:08.766Z,71.74
2019-03-25T04:46:37.659Z,71.94
2019-03-25T04:49:07.464Z,71.70
2019-03-25T04:51:36.364Z,72.19
2019-03-25T04:54:05.255Z,72.78
2019-03-25T04:56:39.915Z,72.58
2019-03-25T04:59:06.210Z,72.89
2019-03-25T05:01:35.136Z,72.91
2019-03-25T05:04:03.993Z,72.98
2019-03-25T05:06:32.883Z,73.75
2019-03-25T05:09:01.880Z,72.66
2019-03-25T05:11:31.109Z,73.02
2019-03-25T05:14:00.072Z,73.21
2019-03-25T05:16:28.962Z,73.58
2019-03-25T05:18:57.855Z,73.52
2019-03-25T05:21:26.744Z,73.57
2019-03-25T05:23:55.635Z,73.71
2019-03-25T05:26:24.529Z,73.44
2019-03-25T05:28:53.416Z,73.71
2019-03-25T05:31:22.314Z,73.72
2019-03-25T05:33:51.201Z,73.79
2019-03-25T05:36:20.091Z,73.33
2019-03-25T05:38:48.982Z,73.01
2019-03-25T05:41:17.876Z,73.69
2019-03-25T05:43:46.762Z,73.25
2019-03-25T05:46:15.656Z,74.21
2019-03-25T05:48:44.554Z,73.22
2019-03-25T05:51:13.436Z,73.31
2019-03-25T05:53:42.329Z,73.89
2019-03-25T05:56:12.360Z,73.69
2019-03-25T05:58:41.236Z,73.50
2019-03-25T06:01:10.996Z,73.71
2019-03-25T06:03:39.841Z,73.04
2019-03-25T06:06:09.652Z,72.51
2019-03-25T06:08:38.542Z,71.89
2019-03-25T06:11:09.175Z,71.24
2019-03-25T06:13:38.066Z,71.00
2019-03-25T06:16:06.909Z,70.89
2019-03-25T06:18:35.745Z,69.54
2019-03-25T06:21:04.638Z,69.08
2019-03-25T06:23:33.529Z,70.40
2019-03-25T06:26:02.419Z,69.10
2019-03-25T06:28:31.311Z,68.31
2019-03-25T06:31:00.305Z,69.30
2019-03-25T06:33:29.198Z,72.47
2019-03-25T06:35:58.087Z,71.62
2019-03-25T06:38:26.980Z,70.37
2019-03-25T06:40:55.869Z,68.97
2019-03-25T06:43:24.759Z,69.04
2019-03-25T06:45:53.708Z,69.61
2019-03-25T06:48:22.644Z,68.86
2019-03-25T06:50:51.643Z,69.71
2019-03-25T06:53:20.527Z,70.41
2019-03-25T06:55:49.524Z,69.86
2019-03-25T06:58:18.419Z,69.68
2019-03-25T07:00:47.306Z,68.83
2019-03-25T07:03:16.195Z,69.64
2019-03-25T07:05:45.210Z,69.12
2019-03-25T07:08:14.080Z,68.29
2019-03-25T07:10:45.223Z,68.18
2019-03-25T07:13:14.116Z,68.62
2019-03-25T07:15:44.187Z,67.21
2019-03-25T07:18:13.436Z,67.97
2019-03-25T07:20:42.328Z,68.08
2019-03-25T07:23:13.980Z,68.09
2019-03-25T07:25:42.871Z,67.42
2019-03-25T07:28:12.172Z,67.36
2019-03-25T07:30:41.069Z,66.81
2019-03-25T07:33:10.979Z,66.83
2019-03-25T07:35:39.871Z,67.34
2019-03-25T07:38:09.102Z,67.48
2019-03-25T07:40:37.962Z,68.54
2019-03-25T07:43:08.368Z,67.36
2019-03-25T07:45:37.385Z,68.24
2019-03-25T07:48:06.274Z,66.90
2019-03-25T07:50:35.166Z,67.48
2019-03-25T07:53:04.056Z,67.69
2019-03-25T07:55:33.070Z,67.53
2019-03-25T07:58:04.503Z,67.17
2019-03-25T08:00:33.419Z,67.51
2019-03-25T08:03:02.303Z,66.85
2019-03-25T08:05:31.287Z,66.32
2019-03-25T08:08:00.165Z,66.54
2019-03-25T08:10:33.574Z,66.87
2019-03-25T08:13:02.725Z,66.40
2019-03-25T08:15:31.971Z,65.95
2019-03-25T08:18:01.268Z,66.41
2019-03-25T08:20:30.155Z,65.60
2019-03-25T08:22:59.150Z,66.63
2019-03-25T08:25:28.041Z,66.14
2019-03-25T08:28:00.165Z,66.50
2019-03-25T08:30:27.704Z,66.06
2019-03-25T08:32:56.558Z,66.45
2019-03-25T08:35:25.451Z,66.17
2019-03-25T08:37:54.341Z,65.80
2019-03-25T08:40:23.336Z,65.72
2019-03-25T08:42:52.224Z,65.04
2019-03-25T08:45:21.114Z,65.80
2019-03-25T08:47:50.013Z,65.71
2019-03-25T08:50:19.014Z,66.58
2019-03-25T08:52:47.893Z,65.21
2019-03-25T08:55:16.779Z,69.38
2019-03-25T08:57:45.670Z,67.05
2019-03-25T09:00:16.114Z,66.14
2019-03-25T09:02:44.991Z,65.01
2019-03-25T09:05:14.092Z,65.39
2019-03-25T09:07:42.977Z,64.19
2019-03-25T09:10:13.156Z,65.38
2019-03-25T09:12:41.995Z,64.23
2019-03-25T09:15:12.521Z,64.48
2019-03-25T09:17:41.412Z,63.88
2019-03-25T09:20:11.009Z,63.03
2019-03-25T09:22:39.917Z,63.12
2019-03-25T09:25:10.590Z,63.16
2019-03-25T09:27:39.537Z,63.09
2019-03-25T09:30:10.442Z,62.25
2019-03-25T09:32:39.262Z,61.37
2019-03-25T09:35:09.177Z,61.40
2019-03-25T09:37:39.081Z,60.85
2019-03-25T09:40:09.850Z,60.71
2019-03-25T09:42:38.824Z,58.77
2019-03-25T09:45:08.727Z,58.25
2019-03-25T09:47:38.146Z,59.65
2019-03-25T09:50:08.237Z,56.63
2019-03-25T09:52:38.839Z,52.51
2019-03-25T09:55:08.889Z,51.59
2019-03-25T09:57:39.589Z,51.37
2019-03-25T10:00:12.271Z,50.74
2019-03-25T10:02:41.110Z,48.24
2019-03-25T10:05:10.653Z,50.14
2019-03-25T10:07:39.509Z,49.00
2019-03-25T10:10:08.711Z,48.23
2019-03-25T10:12:37.596Z,48.98
2019-03-25T10:15:08.702Z,48.29
2019-03-25T10:17:37.530Z,52.42
2019-03-25T10:20:08.119Z,52.76
2019-03-25T10:22:37.052Z,51.43
2019-03-25T10:25:09.518Z,49.66
2019-03-25T10:27:38.422Z,49.67
2019-03-25T10:30:12.459Z,49.12
2019-03-25T10:32:41.425Z,49.27
2019-03-25T10:35:11.789Z,47.77
2019-03-25T10:37:40.643Z,47.89
2019-03-25T10:40:10.592Z,47.92
2019-03-25T10:42:39.449Z,47.42
2019-03-25T10:45:10.694Z,48.71
2019-03-25T10:47:39.585Z,49.30
2019-03-25T10:50:09.489Z,50.73
2019-03-25T10:52:38.492Z,49.83
2019-03-25T10:55:08.069Z,49.92
2019-03-25T10:57:37.094Z,47.77
2019-03-25T11:00:07.785Z,48.72
2019-03-25T11:02:36.620Z,49.91
2019-03-25T11:05:07.366Z,47.88
2019-03-25T11:07:36.424Z,46.57
2019-03-25T11:10:08.129Z,47.33
2019-03-25T11:12:37.097Z,48.09
2019-03-25T11:15:09.876Z,47.16
2019-03-25T11:17:38.771Z,47.43
2019-03-25T11:20:08.385Z,47.50
2019-03-25T11:22:37.374Z,47.24
2019-03-25T11:25:07.761Z,47.58
2019-03-25T11:27:36.691Z,47.05
2019-03-25T11:30:08.089Z,48.83
2019-03-25T11:32:36.930Z,46.40
2019-03-25T11:35:07.509Z,46.70
2019-03-25T11:37:36.355Z,47.05
2019-03-25T11:40:08.799Z,45.64
2019-03-25T11:42:37.719Z,46.97
2019-03-25T11:45:09.519Z,46.78
2019-03-25T11:47:38.518Z,46.32
2019-03-25T11:50:10.438Z,46.49
2019-03-25T11:52:39.325Z,44.87
2019-03-25T11:55:08.525Z,45.60
2019-03-25T11:57:37.413Z,45.15
2019-03-25T12:00:09.943Z,43.69
2019-03-25T12:02:38.884Z,45.74
2019-03-25T12:05:08.999Z,45.89
2019-03-25T12:07:37.900Z,43.99
2019-03-25T12:10:07.654Z,44.47
2019-03-25T12:12:36.596Z,43.71
2019-03-25T12:15:07.331Z,41.27
2019-03-25T12:17:36.325Z,40.63
2019-03-25T12:20:07.161Z,39.69
2019-03-25T12:22:36.087Z,40.49
2019-03-25T12:25:06.790Z,41.79
2019-03-25T12:27:35.685Z,40.17
2019-03-25T12:30:06.620Z,39.69
2019-03-25T12:32:35.512Z,40.05
2019-03-25T12:35:08.351Z,38.75
2019-03-25T12:37:37.287Z,37.48
2019-03-25T12:40:07.904Z,36.46
2019-03-25T12:42:37.118Z,35.96
2019-03-25T12:45:10.695Z,39.59
2019-03-25T12:47:39.608Z,38.02
2019-03-25T12:50:09.733Z,35.59
2019-03-25T12:52:38.640Z,35.59
2019-03-25T12:55:07.927Z,36.43
2019-03-25T12:57:36.812Z,38.17
2019-03-25T13:00:07.552Z,35.01
2019-03-25T13:02:36.437Z,36.46
2019-03-25T13:05:07.332Z,35.76
2019-03-25T13:07:36.166Z,35.38
2019-03-25T13:10:06.470Z,36.50
2019-03-25T13:12:35.384Z,36.38
2019-03-25T13:15:05.181Z,35.29
2019-03-25T13:17:34.085Z,33.53
2019-03-25T13:20:04.612Z,34.99
2019-03-25T13:22:33.510Z,34.78
2019-03-25T13:25:02.400Z,34.46
2019-03-25T13:27:31.287Z,34.85
2019-03-25T13:30:00.285Z,33.89
2019-03-25T13:32:29.377Z,33.17
2019-03-25T13:34:58.268Z,34.53
2019-03-25T13:37:27.159Z,35.23
2019-03-25T13:39:57.460Z,35.18
2019-03-25T13:42:26.380Z,32.86
2019-03-25T13:44:57.609Z,33.44
2019-03-25T13:47:25.899Z,31.65
2019-03-25T13:49:54.693Z,31.80
2019-03-25T13:52:23.579Z,31.65
2019-03-25T13:54:52.468Z,32.99
2019-03-25T13:57:21.361Z,32.87
2019-03-25T13:59:50.251Z,33.38
2019-03-25T14:02:19.146Z,32.87
2019-03-25T14:04:48.055Z,32.21
2019-03-25T14:07:16.924Z,33.34
2019-03-25T14:09:45.815Z,32.13
2019-03-25T14:12:14.706Z,32.10
2019-03-25T14:14:43.607Z,32.72
2019-03-25T14:17:13.702Z,31.36
2019-03-25T14:19:42.613Z,32.69
2019-03-25T14:22:12.219Z,32.14
2019-03-25T14:24:42.133Z,31.55
2019-03-25T14:27:11.229Z,33.17
2019-03-25T14:29:40.119Z,31.92
2019-03-25T14:32:09.816Z,32.96
2019-03-25T14:34:44.777Z,33.46
2019-03-25T14:37:10.071Z,32.85
2019-03-25T14:39:38.962Z,33.37
2019-03-25T14:42:08.879Z,32.83
2019-03-25T14:44:37.770Z,33.83
2019-03-25T14:47:06.571Z,32.64
2019-03-25T14:49:36.681Z,32.56
2019-03-25T14:52:05.573Z,33.19
2019-03-25T14:54:35.898Z,34.06
2019-03-25T14:57:04.891Z,33.79
2019-03-25T14:59:33.885Z,35.04
2019-03-25T15:02:02.770Z,34.87
2019-03-25T15:04:31.662Z,36.70
2019-03-25T15:07:00.552Z,35.46
2019-03-25T15:09:29.450Z,34.84
2019-03-25T15:11:58.335Z,34.69
2019-03-25T15:14:27.329Z,36.07
2019-03-25T15:16:56.327Z,35.14
2019-03-25T15:19:25.214Z,35.55
2019-03-25T15:21:54.110Z,34.77
2019-03-25T15:24:22.995Z,34.16
2019-03-25T15:26:51.890Z,35.02
2019-03-25T15:29:20.779Z,34.29
2019-03-25T15:31:49.672Z,33.92
2019-03-25T15:34:20.098Z,34.92
2019-03-25T15:36:48.991Z,35.61
2019-03-25T15:39:17.888Z,33.07
2019-03-25T15:41:47.328Z,34.38
2019-03-25T15:44:16.380Z,33.70
2019-03-25T15:46:55.349Z,34.06
2019-03-25T15:49:15.885Z,35.87
2019-03-25T15:51:44.694Z,36.26
2019-03-25T15:54:13.588Z,35.19
2019-03-25T15:56:42.476Z,36.16
2019-03-25T15:59:12.084Z,34.87
2019-03-25T16:01:41.077Z,35.26
2019-03-25T16:04:10.480Z,35.15
2019-03-25T16:06:39.370Z,35.00
2019-03-25T16:09:09.507Z,35.77
2019-03-25T16:11:38.379Z,34.46
2019-03-25T16:14:07.987Z,35.32
2019-03-25T16:16:37.112Z,34.25
2019-03-25T16:19:05.978Z,34.13
2019-03-25T16:21:34.845Z,35.32
2019-03-25T16:24:03.656Z,34.59
2019-03-25T16:26:32.552Z,35.22
2019-03-25T16:29:01.437Z,34.32
2019-03-25T16:31:30.371Z,35.78
2019-03-25T16:33:59.219Z,35.39
2019-03-25T16:36:28.112Z,35.80
2019-03-25T16:38:57.003Z,35.95
2019-03-25T16:41:25.898Z,36.32
2019-03-25T16:43:54.700Z,37.35
2019-03-25T16:46:23.576Z,37.21
2019-03-25T16:48:54.978Z,36.91
2019-03-25T16:51:23.098Z,37.44
2019-03-25T16:53:51.987Z,37.31
2019-03-25T16:56:20.881Z,36.36
2019-03-25T16:58:49.770Z,37.09
2019-03-25T17:01:18.662Z,36.33
2019-03-25T17:03:47.553Z,36.45
2019-03-25T17:06:16.552Z,35.99
2019-03-25T17:08:45.437Z,35.31
2019-03-25T17:11:14.387Z,35.53
2019-03-25T17:13:43.329Z,34.98
2019-03-25T17:16:12.213Z,36.76
2019-03-25T17:18:41.160Z,35.65
2019-03-25T17:21:12.625Z,36.13
2019-03-25T17:23:42.982Z,35.24
2019-03-25T17:26:12.078Z,35.52
2019-03-25T17:28:41.075Z,35.13
2019-03-25T17:31:20.562Z,35.34
2019-03-25T17:33:42.847Z,35.98
2019-03-25T17:36:11.945Z,35.35
2019-03-25T17:38:40.841Z,35.03
2019-03-25T17:41:09.832Z,34.89
2019-03-25T17:43:38.721Z,35.13
2019-03-25T17:46:08.532Z,34.62
2019-03-25T17:48:37.428Z,35.08
2019-03-25T17:51:07.338Z,35.73
2019-03-25T17:53:36.230Z,35.39
2019-03-25T17:56:06.964Z,35.96
2019-03-25T17:58:35.760Z,36.50
2019-03-25T18:01:07.625Z,36.80
2019-03-25T18:03:37.941Z,37.06
2019-03-25T18:06:07.858Z,36.82
2019-03-25T18:08:36.852Z,37.06
2019-03-25T18:11:07.106Z,37.43
2019-03-25T18:13:37.395Z,37.72
2019-03-25T18:16:06.324Z,38.47
2019-03-25T18:18:35.181Z,38.69
2019-03-25T18:21:04.072Z,38.83
2019-03-25T18:23:32.959Z,38.14
2019-03-25T18:26:02.977Z,39.25
2019-03-25T18:28:32.049Z,39.40
2019-03-25T18:31:00.866Z,42.61
2019-03-25T18:33:29.753Z,43.12
2019-03-25T18:35:58.656Z,43.12
2019-03-25T18:38:27.637Z,43.46
2019-03-25T18:40:57.964Z,42.54
2019-03-25T18:43:26.856Z,42.92
2019-03-25T18:45:55.743Z,42.67
2019-03-25T18:48:24.637Z,43.99
2019-03-25T18:50:53.529Z,44.96
2019-03-25T18:53:22.417Z,44.96
2019-03-25T18:55:51.531Z,44.77
2019-03-25T18:58:20.406Z,44.23
2019-03-25T19:00:49.313Z,43.49
2019-03-25T19:03:18.626Z,44.08
2019-03-25T19:05:47.722Z,43.64
2019-03-25T19:08:17.714Z,43.85
2019-03-25T19:10:46.961Z,43.82
2019-03-25T19:13:15.800Z,45.42
2019-03-25T19:15:44.712Z,44.67
2019-03-25T19:18:13.591Z,44.27
2019-03-25T19:20:42.481Z,44.37
2019-03-25T19:23:12.288Z,44.87
2019-03-25T19:25:41.202Z,45.62
2019-03-25T19:28:10.384Z,45.61
2019-03-25T19:30:39.270Z,45.95
2019-03-25T19:33:08.689Z,45.54
2019-03-25T19:35:37.679Z,45.92
2019-03-25T19:38:07.485Z,45.55
2019-03-25T19:40:37.873Z,45.93
2019-03-25T19:43:07.664Z,46.65
2019-03-25T19:45:36.519Z,45.77
2019-03-25T19:48:05.499Z,46.13
2019-03-25T19:50:34.413Z,45.52
2019-03-25T19:53:03.285Z,44.85
2019-03-25T19:55:32.206Z,44.40
2019-03-25T19:58:01.103Z,44.47
2019-03-25T20:00:35.798Z,44.80
2019-03-25T20:03:05.093Z,43.92
2019-03-25T20:05:34.189Z,43.11
2019-03-25T20:08:03.275Z,43.11
2019-03-25T20:10:34.398Z,43.98
2019-03-25T20:13:03.325Z,43.53
2019-03-25T20:15:44.949Z,43.87
2019-03-25T20:18:02.931Z,43.95
2019-03-25T20:20:36.043Z,43.09
2019-03-25T20:23:05.342Z,44.12
2019-03-25T20:25:34.238Z,44.27
2019-03-25T20:28:04.455Z,44.49
2019-03-25T20:30:33.346Z,45.42
2019-03-25T20:33:02.345Z,44.50
2019-03-25T20:35:31.285Z,44.67
2019-03-25T20:38:00.263Z,45.08
2019-03-25T20:40:29.172Z,44.92
2019-03-25T20:42:58.073Z,44.80
2019-03-25T20:45:27.096Z,45.45
2019-03-25T20:47:56.061Z,46.06
2019-03-25T20:50:27.239Z,45.74
2019-03-25T20:52:56.051Z,46.10
2019-03-25T20:55:24.919Z,46.12
2019-03-25T20:57:53.853Z,45.82
2019-03-25T21:00:47.919Z,46.14
2019-03-25T21:03:17.221Z,45.94
2019-03-25T21:05:46.221Z,45.77
2019-03-25T21:08:15.291Z,46.26
2019-03-25T21:10:44.351Z,46.02
2019-03-25T21:13:13.475Z,46.78
2019-03-25T21:15:42.382Z,46.65
2019-03-25T21:18:11.459Z,45.80
2019-03-25T21:20:40.349Z,45.98
2019-03-25T21:23:09.958Z,46.12
2019-03-25T21:25:38.876Z,46.70
2019-03-25T21:28:08.051Z,46.79
2019-03-25T21:30:47.479Z,47.77
2019-03-25T21:33:08.593Z,47.33
2019-03-25T21:35:37.587Z,46.97
2019-03-25T21:38:06.527Z,46.88
2019-03-25T21:40:35.370Z,47.72
2019-03-25T21:43:04.259Z,47.37
2019-03-25T21:45:33.152Z,46.48
2019-03-25T21:48:02.154Z,46.59
2019-03-25T21:50:31.302Z,46.80
2019-03-25T21:53:00.133Z,46.80
2019-03-25T21:55:29.233Z,46.31
2019-03-25T21:57:58.208Z,46.63
2019-03-25T22:00:27.116Z,46.49
2019-03-25T22:02:56.003Z,47.22
2019-03-25T22:05:24.894Z,47.48
2019-03-25T22:07:53.925Z,46.91
2019-03-25T22:10:22.780Z,47.20
2019-03-25T22:12:51.675Z,47.20
2019-03-25T22:15:20.664Z,47.61
2019-03-25T22:17:49.556Z,47.75
2019-03-25T22:20:18.552Z,47.28
2019-03-25T22:22:47.443Z,48.51
2019-03-25T22:25:16.434Z,48.27
2019-03-25T22:27:45.429Z,47.34
2019-03-25T22:30:14.813Z,47.92
2019-03-25T22:32:43.621Z,47.13
2019-03-25T22:35:12.921Z,47.02
2019-03-25T22:37:41.816Z,46.76
2019-03-25T22:40:12.140Z,47.21
2019-03-25T22:42:41.027Z,47.17
2019-03-25T22:45:11.046Z,47.49
2019-03-25T22:47:39.939Z,46.86
2019-03-25T22:50:13.825Z,47.65
2019-03-25T22:52:42.706Z,47.07
2019-03-25T22:55:12.755Z,47.43
2019-03-25T22:57:41.645Z,47.24
2019-03-25T23:00:11.574Z,46.99
2019-03-25T23:02:40.451Z,48.14
2019-03-25T23:05:10.041Z,47.79
2019-03-25T23:07:38.848Z,47.34
2019-03-25T23:10:08.644Z,47.74
2019-03-25T23:12:39.345Z,47.71
2019-03-25T23:15:09.313Z,48.22
2019-03-25T23:17:38.204Z,47.29
2019-03-25T23:20:07.487Z,48.67
2019-03-25T23:22:36.399Z,48.54
2019-03-25T23:25:06.586Z,48.03
2019-03-25T23:27:35.714Z,49.01
2019-03-25T23:30:07.111Z,48.10
2019-03-25T23:32:36.321Z,49.11
2019-03-25T23:35:06.499Z,49.09
2019-03-25T23:37:35.379Z,49.08
2019-03-25T23:40:06.063Z,48.71
2019-03-25T23:42:36.024Z,48.73
2019-03-25T23:45:06.947Z,48.55
2019-03-25T23:47:37.390Z,48.77
2019-03-25T23:50:07.405Z,48.99
2019-03-25T23:52:40.560Z,49.83
2019-03-25T23:55:11.054Z,50.08
2019-03-25T23:57:39.915Z,50.21
